Tušimice, Česko

05:29 CET 25. Únor 2017 (GMT +0100)
Kadan | | Change Station

Výška 984 ft 50.38 °N, 13.27 °E | Updated 14 seconds ago

Jasno
Jasno
34.2 °F
Pocit jako 34 °F
S
0.0
Vítr proměnlivý Vítr od ZSZ
Gusts 0.0 mil/h

Dnes
Vysoké -- | Nízké -- °F
--% Možnost srážek
Včera
Vysoké -- | Nízké -- °F
Precip. -- inčů
Tlak 30.06 inčů
Viditelnost -9999.0 mílí
Zataženo
Ochlazování větrem 34 °F
Rosný bod 22 °F
Vlhkost 61%
Dešťové srážky 0.00 inčů
Sněhová pokrývka Není k dispozici
6:58 AM 5:41 PM
Ubývající srpek, 2% visible
METAR LKKV 250400Z 26007KT CAVOK M02/M05 Q1018
Tlak 30.06 inčů
Viditelnost -9999.0 mílí
Zataženo
Ochlazování větrem 34 °F
Rosný bod 22 °F
Vlhkost 61%
Dešťové srážky 0.00 inčů
Sněhová pokrývka Není k dispozici
6:58 AM 5:41 PM
Ubývající srpek, 2% visible
METAR LKKV 250400Z 26007KT CAVOK M02/M05 Q1018

Get Your Daily Forecast Email!

Thanks for signing up!

Be on the lookout for a verification email in your inbox.

You'll start receiving the daily forecast at 8 AM.

×

10-Day Weather Forecast

×

Almanac

Astronomie

Feb. 25, 2017 Východ Západ
Skutečný čas
Občanský soumrak
Námořní soumrak
Astronomický soumrak
Měsíc
Délka denního světla
Délka dne
Tomorrow will be .
, % of the Moon is Illuminated

Dnešní extrémy

Nejvyšší hodnoty ve státě Nejnižší hodnoty ve státě

Community

WunderPhotos

Upload Photos

1,962,540 snímků staženo!

WunderBlog® & News

Nearby

Kvalita ovzduší

  Kvalita ovzduší Index kvality ovzduší Polutant
Not available.

Výška sněhu

Station Hloubka Nadmořská výška

Seizmická činnost

Město Distance Mag. Čas & datum
Minimální zobrazený rozsah je 2.5.

Pobřežní teplota vody

Lokalita Teplota

Stations

Poblíž povětrnostní stanice

Lokace stanice Tepl. Ochlazování větrem Rosný bod Vlhkost Vítr Precip. Výška Čas hlášení Typ